Souris, ND

5:14 AM CDT on July 14, 2014 (GMT -0500)
Minot Air Force Base (KMIB) Elev 1667 ft | 48.42 °N, 101.36 °W | Change Station
Active Advisory: Flood Warning

Current weather conditions updated 16 minutes ago

Clear
Clear
50 °F
Feels Like 50 °F
N
9
Wind Variable Wind from NW

Today is forecast to be nearly the same temperature as yesterday.

Today
High -- | Low -- °F
--% Chance of Precip.
Yesterday
High -- | Low -- °F
Precip. -- in
5:54 AM 9:43 PM
Waning Gibbous, 94% visible
Pressure 30.21 in
Visibility 10.0 miles
Clouds Clear
Dew Point 49 °F
Humidity 97%
Rainfall 0.00 in
Snow Depth Not available.
UV 0 out of 12
Pollen 5.30 out of 12
Air Quality Not available.
Flu Activity Sporadic
METAR KMIB 140958Z AUTO 32008KT 10SM CLR 10/09 A3019 RMK AO2 SLP230 T00980093 $

More Conditions Fewer Conditions

Pressure 30.21 in
Visibility 10.0 miles
Clouds Clear
Dew Point 49 °F
Humidity 97%
Rainfall 0.00 in
Snow Depth Not available.
UV 0 out of 12
Pollen 5.30 out of 12
Air Quality Not available.
Flu Activity Sporadic
METAR KMIB 140958Z AUTO 32008KT 10SM CLR 10/09 A3019 RMK AO2 SLP230 T00980093 $

More Conditions Fewer Conditions

10-Day Weather Forecast

Almanac

Astronomy

Jul. 14, 2014 Rise Set
Actual Time 5:54 AM CDT 9:43 PM CDT
Civil Twilight 5:13 AM CDT 10:23 PM CDT
Nautical Twilight 4:18 AM CDT 11:19 PM CDT
Astronomical Twilight 2:52 AM CDT 12:42 AM CDT
Moon 10:52 PM CDT 8:57 AM CDT
Length of Visible Light 17h 09m
Length of Day
15h 48m
Tomorrow will be 1m 55s shorter.
Waning Gibbous, 94% of the Moon is Illuminated
Today
Waning Gibbous
Jul 18
Last Quarter
Jul 26
New
Aug 3
First Quarter
Aug 10
Full

Today's Extremes

State Highs State Lows

Community

WunderPhotos

Upload Photos

1,733,593 photos uploaded!

Nearby

Snow Depth

Station Depth Elevation
No new snow has been reported.

Earthquake Activity

City Distance Mag. Time & Date
No recent earthquake activity has been reported nearby.
Minimum magnitude displayed is 2.5.

Coastal Water Temperatures

Place Temperature
No Stations Reporting

Nearby Weather Stations

There are no personal weather stations in this area.